Terminal Aerodrome Forecast
Issued by NWS

Home | Current Version | Previous Version | Graphics & Text | Print | Product List | Glossary On
Versions: 1 2 3 4 5 6 7 8 9 10 11 12
000
FTUS43 KBIS 242332
TAFDIK
TAF
KDIK 242332Z 2500/2524 35015G24KT P6SM FEW070
     FM250200 36009KT P6SM FEW070
     FM250500 11004KT P6SM SKC
     FM250600 19004KT P6SM SKC
     FM251300 25008KT P6SM SCT080 BKN120
     FM251700 33013G22KT P6SM FEW070=

USA.gov is the U.S. government's official web portal to all federal, state and local government web resources and services.